SBI4101 ULAA-UWWW
Flight info
| Callsign | SBI4101 |
|---|---|
| Flight time | N/A |
| Altitude | 35000 |
| Route | ODESI L93 BEGBA P165 ASREG L94 UNORO T788 INTAR M161 DOGUR |
| Aircraft | A310/H-SDFGHIM1RTUWXYZ/LB1 |
Departure
| Time | 2026-04-24 16:09 |
|---|---|
| Airport | Talagi Airport (ULAA) |
Arrival
| Time | N/A |
|---|---|
| Airport | Kurumoch International Airport (UWWW) |
| Time | Latitude | Longitude | Altitude | Speed | Heading |
|---|---|---|---|---|---|
| 2026-04-24 15:43 | 64.59766 | 40.71545 | 56 ft | 0 kts | 329° |
| 2026-04-24 16:02 | 64.59772 | 40.71539 | 51 ft | 3 kts | 332° |
| 2026-04-24 16:02 | 64.59802 | 40.71514 | 56 ft | 5 kts | 338° |
| 2026-04-24 16:02 | 64.59823 | 40.71458 | 52 ft | 6 kts | 298° |
| 2026-04-24 16:03 | 64.59834 | 40.71352 | 55 ft | 7 kts | 290° |
| 2026-04-24 16:03 | 64.59864 | 40.71309 | 52 ft | 4 kts | 350° |
| 2026-04-24 16:03 | 64.59877 | 40.71308 | 52 ft | 2 kts | 359° |
| 2026-04-24 16:03 | 64.59901 | 40.71311 | 53 ft | 5 kts | 4° |
| 2026-04-24 16:04 | 64.59953 | 40.71322 | 51 ft | 10 kts | 5° |
| 2026-04-24 16:04 | 64.60025 | 40.71350 | 54 ft | 10 kts | 29° |
| 2026-04-24 16:04 | 64.60036 | 40.71528 | 54 ft | 15 kts | 94° |
| 2026-04-24 16:04 | 64.60022 | 40.71831 | 54 ft | 23 kts | 97° |
| 2026-04-24 16:05 | 64.59984 | 40.72607 | 52 ft | 22 kts | 97° |
| 2026-04-24 16:05 | 64.59968 | 40.72939 | 59 ft | 19 kts | 97° |
| 2026-04-24 16:06 | 64.59936 | 40.73597 | 60 ft | 22 kts | 96° |
| 2026-04-24 16:06 | 64.59918 | 40.73940 | 60 ft | 21 kts | 96° |
| 2026-04-24 16:06 | 64.59908 | 40.74163 | 59 ft | 3 kts | 279° |
| 2026-04-24 16:07 | 64.59909 | 40.74128 | 56 ft | 0 kts | 276° |
| 2026-04-24 16:07 | 64.59915 | 40.74007 | 61 ft | 27 kts | 277° |
| 2026-04-24 16:08 | 64.59960 | 40.73090 | 57 ft | 86 kts | 276° |
| 2026-04-24 16:08 | 64.60164 | 40.68847 | 248 ft | 157 kts | 279° |
| 2026-04-24 16:09 | 64.60461 | 40.63500 | 1019 ft | 178 kts | 297° |
| 2026-04-24 16:09 | 64.60882 | 40.60820 | 1602 ft | 188 kts | 268° |
| 2026-04-24 16:09 | 64.60575 | 40.58884 | 1817 ft | 205 kts | 230° |
| 2026-04-24 16:09 | 64.58688 | 40.57965 | 2366 ft | 234 kts | 158° |
| 2026-04-24 16:10 | 64.54270 | 40.65179 | 3850 ft | 275 kts | 143° |
| 2026-04-24 16:11 | 64.51014 | 40.70918 | 4478 ft | 303 kts | 144° |
| 2026-04-24 16:11 | 64.49958 | 40.72900 | 4875 ft | 288 kts | 140° |
| 2026-04-24 16:11 | 64.48469 | 40.75922 | 5932 ft | 280 kts | 140° |
| 2026-04-24 16:12 | 64.45489 | 40.81753 | 7698 ft | 281 kts | 143° |
| 2026-04-24 16:12 | 64.43474 | 40.85545 | 8892 ft | 282 kts | 144° |
| 2026-04-24 16:12 | 64.40396 | 40.91229 | 10579 ft | 284 kts | 145° |
| 2026-04-24 16:13 | 64.39343 | 40.93144 | 11139 ft | 285 kts | 145° |
| 2026-04-24 16:13 | 64.36216 | 40.98860 | 12743 ft | 288 kts | 145° |
| 2026-04-24 16:14 | 64.33054 | 41.04678 | 14189 ft | 293 kts | 146° |
| 2026-04-24 16:14 | 64.31471 | 41.07570 | 14850 ft | 295 kts | 146° |
| 2026-04-24 16:14 | 64.28223 | 41.13472 | 16219 ft | 300 kts | 146° |
| 2026-04-24 16:15 | 64.27114 | 41.15497 | 16654 ft | 302 kts | 146° |
| 2026-04-24 16:15 | 64.23264 | 41.22572 | 18155 ft | 308 kts | 146° |
| 2026-04-24 16:16 | 64.19889 | 41.28775 | 19230 ft | 314 kts | 146° |
| 2026-04-24 16:16 | 64.18169 | 41.31895 | 19771 ft | 317 kts | 146° |
| 2026-04-24 16:17 | 64.12900 | 41.41423 | 21313 ft | 326 kts | 145° |
| 2026-04-24 16:17 | 64.09308 | 41.47943 | 22323 ft | 332 kts | 145° |
| 2026-04-24 16:18 | 64.05642 | 41.54554 | 23282 ft | 338 kts | 145° |
| 2026-04-24 16:18 | 64.01905 | 41.61244 | 24038 ft | 345 kts | 145° |
| 2026-04-24 16:18 | 64.00023 | 41.64590 | 24404 ft | 348 kts | 145° |
| 2026-04-24 16:19 | 63.96161 | 41.71433 | 25162 ft | 354 kts | 144° |
| 2026-04-24 16:19 | 63.94226 | 41.74923 | 25595 ft | 355 kts | 144° |
| 2026-04-24 16:20 | 63.90311 | 41.81892 | 26339 ft | 361 kts | 144° |
| 2026-04-24 16:20 | 63.86318 | 41.88969 | 27017 ft | 366 kts | 146° |
| 2026-04-24 16:20 | 63.84216 | 41.92270 | 27365 ft | 369 kts | 148° |
| 2026-04-24 16:21 | 63.79909 | 41.98690 | 28069 ft | 373 kts | 148° |
| 2026-04-24 16:21 | 63.77740 | 42.01969 | 28332 ft | 378 kts | 148° |
| 2026-04-24 16:21 | 63.75543 | 42.05297 | 28581 ft | 383 kts | 148° |
| 2026-04-24 16:22 | 63.73336 | 42.08703 | 28828 ft | 387 kts | 147° |
| 2026-04-24 16:22 | 63.68823 | 42.15601 | 29344 ft | 395 kts | 147° |
| 2026-04-24 16:22 | 63.66537 | 42.19090 | 29590 ft | 399 kts | 147° |
| 2026-04-24 16:23 | 63.64220 | 42.22592 | 29806 ft | 403 kts | 147° |
| 2026-04-24 16:23 | 63.61891 | 42.26140 | 30001 ft | 407 kts | 147° |
| 2026-04-24 16:23 | 63.59518 | 42.29708 | 30120 ft | 413 kts | 148° |
| 2026-04-24 16:24 | 63.54655 | 42.36962 | 30349 ft | 426 kts | 148° |
| 2026-04-24 16:24 | 63.52177 | 42.40697 | 30467 ft | 432 kts | 147° |
| 2026-04-24 16:24 | 63.49666 | 42.44470 | 30575 ft | 438 kts | 148° |
| 2026-04-24 16:24 | 63.47115 | 42.48274 | 30709 ft | 444 kts | 147° |
| 2026-04-24 16:25 | 63.44530 | 42.52155 | 30821 ft | 450 kts | 147° |
| 2026-04-24 16:25 | 63.41899 | 42.56054 | 30947 ft | 457 kts | 148° |
| 2026-04-24 16:25 | 63.39275 | 42.59956 | 31062 ft | 463 kts | 147° |
| 2026-04-24 16:26 | 63.33863 | 42.67975 | 31297 ft | 468 kts | 148° |
| 2026-04-24 16:26 | 63.31143 | 42.71979 | 31429 ft | 469 kts | 147° |
| 2026-04-24 16:26 | 63.25702 | 42.80006 | 31674 ft | 469 kts | 148° |
| 2026-04-24 16:27 | 63.22973 | 42.83989 | 31793 ft | 469 kts | 148° |
| 2026-04-24 16:27 | 63.20248 | 42.87985 | 31917 ft | 469 kts | 148° |
| 2026-04-24 16:27 | 63.17522 | 42.91967 | 32110 ft | 469 kts | 148° |
| 2026-04-24 16:27 | 63.14792 | 42.95942 | 32436 ft | 470 kts | 148° |
| 2026-04-24 16:28 | 63.12068 | 42.99901 | 32889 ft | 467 kts | 148° |
| 2026-04-24 16:28 | 63.09367 | 43.03817 | 33374 ft | 463 kts | 148° |
| 2026-04-24 16:28 | 63.04053 | 43.11519 | 34177 ft | 457 kts | 148° |
| 2026-04-24 16:29 | 63.01385 | 43.15359 | 34337 ft | 459 kts | 148° |
| 2026-04-24 16:29 | 62.98698 | 43.19222 | 34426 ft | 463 kts | 148° |
| 2026-04-24 16:30 | 62.87820 | 43.34803 | 34461 ft | 465 kts | 148° |
| 2026-04-24 16:30 | 62.82407 | 43.42550 | 34459 ft | 465 kts | 148° |
| 2026-04-24 16:31 | 62.76980 | 43.50232 | 34454 ft | 464 kts | 148° |
| 2026-04-24 16:31 | 62.71556 | 43.57870 | 34453 ft | 464 kts | 148° |
| 2026-04-24 16:32 | 62.66124 | 43.65462 | 34456 ft | 463 kts | 148° |
| 2026-04-24 16:32 | 62.60697 | 43.73013 | 34453 ft | 463 kts | 148° |
| 2026-04-24 16:33 | 62.55357 | 43.80828 | 34457 ft | 462 kts | 146° |
| 2026-04-24 16:33 | 62.50143 | 43.88790 | 34462 ft | 457 kts | 146° |
| 2026-04-24 16:34 | 62.44965 | 43.96721 | 34456 ft | 456 kts | 146° |
| 2026-04-24 16:34 | 62.39815 | 44.04567 | 34450 ft | 455 kts | 146° |
| 2026-04-24 16:35 | 62.34626 | 44.12381 | 34457 ft | 455 kts | 146° |
| 2026-04-24 16:35 | 62.29425 | 44.20159 | 34462 ft | 455 kts | 146° |
| 2026-04-24 16:36 | 62.24225 | 44.27898 | 34461 ft | 454 kts | 146° |
| 2026-04-24 16:36 | 62.19034 | 44.35622 | 34463 ft | 454 kts | 146° |
| 2026-04-24 16:37 | 62.13833 | 44.43286 | 34464 ft | 454 kts | 146° |
| 2026-04-24 16:37 | 62.08636 | 44.50942 | 34464 ft | 453 kts | 146° |
| 2026-04-24 16:38 | 62.03448 | 44.58587 | 34467 ft | 453 kts | 146° |
| 2026-04-24 16:38 | 61.98266 | 44.66216 | 34462 ft | 453 kts | 146° |
| 2026-04-24 16:39 | 61.93108 | 44.73727 | 34475 ft | 452 kts | 147° |
| 2026-04-24 16:39 | 61.87920 | 44.81266 | 34474 ft | 452 kts | 147° |
| 2026-04-24 16:40 | 61.82727 | 44.88782 | 34476 ft | 452 kts | 147° |
| 2026-04-24 16:40 | 61.77535 | 44.96259 | 34477 ft | 451 kts | 147° |
| 2026-04-24 16:41 | 61.72336 | 45.03678 | 34479 ft | 451 kts | 147° |
| 2026-04-24 16:41 | 61.67275 | 45.11503 | 34487 ft | 451 kts | 142° |
| 2026-04-24 16:42 | 61.62497 | 45.20086 | 34485 ft | 452 kts | 141° |
| 2026-04-24 16:42 | 61.57698 | 45.28628 | 34489 ft | 451 kts | 142° |
| 2026-04-24 16:43 | 61.52888 | 45.36937 | 34497 ft | 451 kts | 142° |
| 2026-04-24 16:43 | 61.48061 | 45.45310 | 34494 ft | 450 kts | 142° |
| 2026-04-24 16:44 | 61.43227 | 45.53633 | 34496 ft | 450 kts | 142° |
| 2026-04-24 16:44 | 61.38390 | 45.61910 | 34497 ft | 450 kts | 142° |
| 2026-04-24 16:45 | 61.33558 | 45.70185 | 34501 ft | 449 kts | 142° |
| 2026-04-24 16:45 | 61.28726 | 45.78434 | 34505 ft | 449 kts | 142° |
| 2026-04-24 16:46 | 61.23908 | 45.86660 | 34505 ft | 448 kts | 142° |
| 2026-04-24 16:46 | 61.19082 | 45.94884 | 34506 ft | 448 kts | 142° |
| 2026-04-24 16:47 | 61.14245 | 46.03006 | 34499 ft | 448 kts | 142° |
| 2026-04-24 16:47 | 61.09404 | 46.11096 | 34510 ft | 447 kts | 143° |
| 2026-04-24 16:48 | 61.04591 | 46.19113 | 34500 ft | 447 kts | 143° |
| 2026-04-24 16:48 | 60.99746 | 46.27066 | 33311 ft | 436 kts | 142° |
| 2026-04-24 16:49 | 60.97443 | 46.30860 | 34329 ft | 418 kts | 141° |
| 2026-04-24 16:49 | 60.95204 | 46.34596 | 34693 ft | 414 kts | 141° |
| 2026-04-24 16:49 | 60.92954 | 46.38318 | 34860 ft | 414 kts | 142° |
| 2026-04-24 16:49 | 60.90698 | 46.42018 | 34976 ft | 416 kts | 141° |
| 2026-04-24 16:50 | 60.86123 | 46.49546 | 35004 ft | 426 kts | 142° |
| 2026-04-24 16:50 | 60.81431 | 46.57247 | 35008 ft | 437 kts | 142° |
| 2026-04-24 16:51 | 60.76564 | 46.64957 | 34986 ft | 448 kts | 151° |
| 2026-04-24 16:51 | 60.73703 | 46.67318 | 35015 ft | 443 kts | 166° |
| 2026-04-24 16:51 | 60.70691 | 46.68701 | 35022 ft | 445 kts | 168° |
| 2026-04-24 16:52 | 60.64663 | 46.71650 | 35011 ft | 445 kts | 164° |
| 2026-04-24 16:52 | 60.58743 | 46.75405 | 34995 ft | 446 kts | 162° |
| 2026-04-24 16:53 | 60.52823 | 46.79176 | 35000 ft | 446 kts | 163° |
| 2026-04-24 16:53 | 60.46942 | 46.82889 | 34998 ft | 446 kts | 163° |
| 2026-04-24 16:54 | 60.41008 | 46.86572 | 34996 ft | 446 kts | 163° |
| 2026-04-24 16:54 | 60.35079 | 46.90239 | 35000 ft | 446 kts | 163° |
| 2026-04-24 16:55 | 60.29148 | 46.93886 | 35002 ft | 446 kts | 163° |
| 2026-04-24 16:55 | 60.23215 | 46.97518 | 35001 ft | 446 kts | 163° |
| 2026-04-24 16:56 | 60.17280 | 47.01159 | 35001 ft | 446 kts | 163° |
| 2026-04-24 16:56 | 60.11277 | 47.04221 | 35004 ft | 445 kts | 170° |
| 2026-04-24 16:57 | 60.05162 | 47.06255 | 34981 ft | 446 kts | 171° |
| 2026-04-24 16:57 | 59.99060 | 47.08451 | 35001 ft | 445 kts | 169° |
| 2026-04-24 16:58 | 59.92965 | 47.10729 | 35001 ft | 446 kts | 169° |
| 2026-04-24 16:58 | 59.86872 | 47.13016 | 34995 ft | 446 kts | 169° |
| 2026-04-24 16:59 | 59.80768 | 47.15222 | 35002 ft | 446 kts | 169° |
| 2026-04-24 17:00 | 59.71662 | 47.18560 | 35000 ft | 445 kts | 169° |
| 2026-04-24 17:00 | 59.62517 | 47.21875 | 35004 ft | 445 kts | 170° |
| 2026-04-24 17:01 | 59.53372 | 47.25166 | 35005 ft | 445 kts | 169° |
| 2026-04-24 17:02 | 59.44225 | 47.28464 | 34998 ft | 445 kts | 170° |
| 2026-04-24 17:02 | 59.39162 | 47.30274 | 34996 ft | 446 kts | 170° |
| 2026-04-24 17:03 | 59.30002 | 47.33527 | 35000 ft | 445 kts | 170° |
| 2026-04-24 17:04 | 59.23902 | 47.35693 | 35003 ft | 445 kts | 170° |
| 2026-04-24 17:04 | 59.14750 | 47.38914 | 35006 ft | 445 kts | 170° |
| 2026-04-24 17:05 | 59.08656 | 47.41062 | 34996 ft | 445 kts | 170° |
| 2026-04-24 17:06 | 58.99502 | 47.44276 | 34996 ft | 445 kts | 170° |
| 2026-04-24 17:06 | 58.90336 | 47.47095 | 35009 ft | 445 kts | 179° |
| 2026-04-24 17:07 | 58.84150 | 47.46711 | 35007 ft | 445 kts | 183° |
| 2026-04-24 17:08 | 58.71803 | 47.46120 | 34996 ft | 445 kts | 181° |
| 2026-04-24 17:08 | 58.65618 | 47.45962 | 35003 ft | 445 kts | 181° |
| 2026-04-24 17:09 | 58.53229 | 47.45491 | 34999 ft | 445 kts | 182° |
| 2026-04-24 17:10 | 58.40852 | 47.44712 | 34998 ft | 445 kts | 182° |
| 2026-04-24 17:12 | 58.16091 | 47.43206 | 35000 ft | 445 kts | 182° |